Time;durP1;ratioP1;P1;durP2;ratioP2;P2;SDS_P1;SDS_P2;PMS_P1;PMS_P2;Temp;Humidity;BMP_temperature;BMP_pressure;BME280_temperature;BME280_humidity;BME280_pressure;Samples;Min_cycle;Max_cycle;Signal;HPM_P1;HPM_P2
2021/11/16 00:01:12;;;;;;;924.92;862.40;;;;;;;19.11;54.46;101696.59;5055193;28;20028;-42
2021/11/16 00:03:39;;;;;;;919.42;857.38;;;;;;;19.17;54.28;101698.78;5036306;28;20032;-41
2021/11/16 00:06:05;;;;;;;878.95;821.90;;;;;;;19.21;54.25;101702.03;5044582;28;20024;-39
2021/11/16 00:08:31;;;;;;;888.45;830.40;;;;;;;19.20;54.20;101703.00;5046948;28;20028;-41
2021/11/16 00:10:57;;;;;;;896.67;837.63;;;;;;;19.18;54.15;101696.94;5055465;28;20024;-41
2021/11/16 00:13:24;;;;;;;874.78;818.30;;;;;;;19.13;54.58;101684.03;5057239;28;20036;-41
2021/11/16 00:15:50;;;;;;;926.67;865.05;;;;;;;19.11;54.72;101680.63;5054363;28;20029;-39
2021/11/16 00:18:18;;;;;;;888.78;831.40;;;;;;;19.11;54.15;101685.94;5059680;28;20053;-39
2021/11/16 00:20:45;;;;;;;900.78;842.53;;;;;;;19.11;54.34;101691.28;5051523;28;20033;-40
2021/11/16 00:23:56;;;;;;;906.05;847.50;;;;;;;19.10;54.54;101696.75;5059562;28;20435;-41
2021/11/16 00:26:03;;;;;;;871.30;815.58;;;;;;;19.11;54.35;101696.59;5044508;28;20040;-41
2021/11/16 00:28:29;;;;;;;911.90;851.75;;;;;;;19.11;54.19;101699.25;5051936;28;20029;-41
2021/11/16 00:30:55;;;;;;;891.35;833.25;;;;;;;19.09;54.52;101695.03;5056434;28;20108;-41
2021/11/16 00:33:22;;;;;;;925.42;863.42;;;;;;;19.13;54.56;101699.13;5058192;28;20028;-41
2021/11/16 00:35:49;;;;;;;972.17;898.92;;;;;;;19.21;54.33;101706.53;5060548;28;20024;-41
2021/11/16 00:38:16;;;;;;;900.13;841.70;;;;;;;19.00;54.69;101684.16;5055794;28;20028;-42
2021/11/16 00:40:43;;;;;;;893.72;835.63;;;;;;;19.14;54.61;101711.50;5043819;28;20365;-38
2021/11/16 00:43:09;;;;;;;929.35;868.15;;;;;;;19.13;54.58;101701.81;5054742;28;20071;-41
2021/11/16 00:45:43;;;;;;;921.97;860.78;;;;;;;18.94;54.25;101667.84;5069248;28;20033;-39
2021/11/16 00:48:10;;;;;;;887.60;829.70;;;;;;;19.12;54.16;101694.81;5065919;28;20033;-39
2021/11/16 00:50:38;;;;;;;909.78;850.67;;;;;;;18.99;54.29;101674.50;5063759;28;20055;-38
2021/11/16 00:53:04;;;;;;;908.08;848.35;;;;;;;19.11;54.24;101690.44;5050366;28;20455;-41
2021/11/16 00:55:30;;;;;;;920.85;860.42;;;;;;;19.11;54.24;101691.28;5056251;28;20029;-37
2021/11/16 00:57:56;;;;;;;890.88;833.30;;;;;;;19.08;54.37;101701.31;5055498;28;20033;-42
2021/11/16 01:00:23;;;;;;;906.65;847.10;;;;;;;19.08;54.40;101694.19;5043285;28;20186;-39
2021/11/16 01:02:49;;;;;;;923.05;862.53;;;;;;;19.14;54.52;101693.69;5053994;28;20039;-41
2021/11/16 01:05:15;;;;;;;898.45;839.78;;;;;;;19.12;54.60;101700.13;5057314;28;20071;-40
2021/11/16 01:07:42;;;;;;;894.22;836.03;;;;;;;19.13;54.40;101712.44;5054486;28;20036;-39
2021/11/16 01:10:13;;;;;;;882.28;825.35;;;;;;;19.10;54.52;101707.41;5056330;28;20450;-42
2021/11/16 01:12:39;;;;;;;935.95;874.38;;;;;;;18.96;54.53;101671.22;5056478;28;20032;-41
2021/11/16 01:15:06;;;;;;;933.63;871.75;;;;;;;19.10;54.56;101710.06;5076451;28;20115;-39
2021/11/16 01:17:32;;;;;;;906.47;847.15;;;;;;;19.11;54.19;101717.06;5050789;28;20079;-40
2021/11/16 01:19:58;;;;;;;911.60;851.63;;;;;;;19.10;54.20;101708.22;5044732;28;20039;-41
2021/11/16 01:22:25;;;;;;;897.90;839.97;;;;;;;19.09;54.46;101711.84;5045565;28;20145;-39
2021/11/16 01:24:51;;;;;;;912.63;852.20;;;;;;;18.46;54.14;101637.00;5048101;28;20075;-42
2021/11/16 01:27:20;;;;;;;891.33;833.80;;;;;;;19.07;54.54;101732.44;5067587;28;20090;-38
2021/11/16 01:29:49;;;;;;;890.50;832.50;;;;;;;18.95;54.73;101712.13;5055235;28;20544;-39
2021/11/16 01:32:37;;;;;;;908.90;849.42;;;;;;;19.09;54.63;101741.13;5054873;28;20178;-39
2021/11/16 01:35:04;;;;;;;885.55;829.38;;;;;;;19.11;54.82;101738.34;5040797;28;20106;-40
2021/11/16 01:37:31;;;;;;;903.63;844.30;;;;;;;19.09;54.48;101730.50;5046932;28;20142;-40
2021/11/16 01:39:57;;;;;;;904.50;845.30;;;;;;;19.09;54.52;101738.47;5054864;28;20064;-41
2021/11/16 01:42:23;;;;;;;911.85;852.17;;;;;;;19.01;54.41;101722.28;5051888;28;20025;-40
2021/11/16 01:44:50;;;;;;;914.97;854.58;;;;;;;19.08;54.24;101733.28;5064339;28;20353;-40
2021/11/16 01:47:16;;;;;;;909.10;851.20;;;;;;;19.08;54.33;101743.91;5042602;28;20029;-39
2021/11/16 01:49:43;;;;;;;904.58;846.38;;;;;;;18.97;54.46;101732.34;5062314;28;20045;-41
2021/11/16 01:52:09;;;;;;;894.90;837.95;;;;;;;19.06;54.45;101745.88;5063866;28;20493;-38
2021/11/16 01:54:36;;;;;;;883.47;826.38;;;;;;;19.07;54.27;101752.91;5082259;28;20047;-39
2021/11/16 01:57:03;;;;;;;871.85;816.83;;;;;;;19.04;54.54;101750.47;5046230;28;20025;-40
2021/11/16 01:59:30;;;;;;;882.53;826.15;;;;;;;19.01;54.50;101754.22;5051364;28;20013;-38
2021/11/16 02:01:56;;;;;;;920.60;859.38;;;;;;;19.07;54.78;101745.75;5059340;28;20390;-41
2021/11/16 02:04:22;;;;;;;905.22;847.25;;;;;;;18.85;54.46;101680.06;5060818;28;20024;-41
2021/11/16 02:06:49;;;;;;;916.67;856.03;;;;;;;19.08;54.30;101722.63;5062151;28;20029;-40
2021/11/16 02:09:16;;;;;;;923.80;863.33;;;;;;;19.06;54.71;101729.88;5062459;28;20044;-40
2021/11/16 02:11:42;;;;;;;904.22;845.80;;;;;;;19.05;54.25;101728.22;5056006;28;20025;-41
2021/11/16 02:14:11;;;;;;;884.90;828.22;;;;;;;19.02;54.58;101736.44;5057588;28;20021;-41
2021/11/16 02:16:37;;;;;;;914.30;854.22;;;;;;;18.91;54.42;101730.16;5074051;28;20045;-41
2021/11/16 02:19:08;;;;;;;914.42;856.08;;;;;;;18.99;54.29;101756.16;5061114;28;20343;-39
2021/11/16 02:21:34;;;;;;;883.53;826.92;;;;;;;19.04;54.25;101750.47;5069260;28;21371;-41
2021/11/16 02:24:00;;;;;;;879.08;823.08;;;;;;;19.03;54.28;101754.94;5052891;28;20037;-41
2021/11/16 02:26:27;;;;;;;891.17;834.15;;;;;;;19.02;54.62;101744.41;5048479;28;20108;-39
2021/11/16 02:28:54;;;;;;;903.50;844.75;;;;;;;19.02;54.58;101739.09;5057574;28;20482;-42
2021/11/16 02:31:20;;;;;;;906.00;846.05;;;;;;;19.05;54.38;101750.34;5071797;28;20024;-42
2021/11/16 02:33:47;;;;;;;898.40;840.05;;;;;;;19.00;54.54;101773.81;5057251;28;20075;-41
2021/11/16 02:36:16;;;;;;;935.72;873.50;;;;;;;18.82;54.64;101738.03;5056968;28;20033;-40
2021/11/16 02:38:42;;;;;;;907.80;849.35;;;;;;;19.02;54.54;101744.41;5069999;28;20415;-41
2021/11/16 02:41:09;;;;;;;894.25;836.35;;;;;;;19.00;54.24;101745.38;5048380;28;20021;-39
2021/11/16 02:43:35;;;;;;;897.80;839.80;;;;;;;18.98;54.39;101743.81;5044983;28;20063;-40
2021/11/16 02:46:02;;;;;;;898.92;840.50;;;;;;;18.99;54.42;101749.03;5055983;28;20354;-41
2021/11/16 02:48:30;;;;;;;932.83;869.92;;;;;;;18.98;54.52;101755.31;5056216;28;20129;-41
2021/11/16 02:50:57;;;;;;;892.95;835.20;;;;;;;19.00;54.41;101756.03;5065223;28;20074;-41
2021/11/16 02:53:24;;;;;;;913.53;853.75;;;;;;;18.94;54.42;101732.56;5051262;28;20020;-41
2021/11/16 02:55:50;;;;;;;905.40;846.55;;;;;;;18.97;54.87;101742.97;5038758;28;20107;-41
2021/11/16 02:58:17;;;;;;;892.85;835.28;;;;;;;19.04;54.67;101753.13;5057177;28;20336;-38
2021/11/16 03:00:47;;;;;;;881.25;824.63;;;;;;;19.02;54.51;101741.75;5056249;28;20025;-40
2021/11/16 03:03:13;;;;;;;879.50;823.15;;;;;;;19.02;54.62;101739.94;5053218;28;20024;-38
2021/11/16 03:05:39;;;;;;;896.20;838.80;;;;;;;18.87;54.25;101719.88;5055252;28;20031;-40
2021/11/16 03:08:21;;;;;;;910.75;851.50;;;;;;;18.98;54.52;101757.97;5057037;28;20459;-41
2021/11/16 03:10:49;;;;;;;883.47;827.05;;;;;;;18.99;54.48;101757.00;5057461;28;20052;-42
2021/11/16 03:13:15;;;;;;;886.08;830.00;;;;;;;18.97;54.39;101756.28;5057235;28;20028;-39
2021/11/16 03:15:41;;;;;;;900.33;842.17;;;;;;;18.94;54.41;101745.03;5056351;28;20385;-40
2021/11/16 03:18:08;;;;;;;892.60;836.25;;;;;;;19.00;54.43;101760.50;5063213;28;20467;-41
2021/11/16 03:20:35;;;;;;;902.08;844.95;;;;;;;19.00;54.20;101761.34;5046699;28;20029;-41
2021/11/16 03:23:13;;;;;;;886.55;829.13;;;;;;;18.99;54.55;101758.81;5054469;28;20036;-41
2021/11/16 03:26:02;;;;;;;903.92;846.13;;;;;;;18.99;54.68;101751.69;5054893;28;20033;-41
2021/11/16 03:28:28;;;;;;;886.25;830.03;;;;;;;18.99;54.44;101741.03;5050281;28;20065;-41
2021/11/16 03:30:56;;;;;;;884.03;827.28;;;;;;;18.98;54.28;101744.66;5054018;28;20108;-40
2021/11/16 03:33:23;;;;;;;923.92;865.35;;;;;;;18.97;54.63;101755.41;5055394;28;20032;-42
2021/11/16 03:35:50;;;;;;;884.33;827.95;;;;;;;18.98;54.30;101765.13;5072036;28;20098;-40
2021/11/16 03:38:18;;;;;;;894.65;836.25;;;;;;;18.94;54.21;101772.50;5055414;28;20040;-38
2021/11/16 03:40:44;;;;;;;886.70;830.47;;;;;;;18.95;54.20;101771.50;5053912;28;20073;-39
2021/11/16 03:43:11;;;;;;;882.78;826.17;;;;;;;18.96;54.17;101772.38;5055655;28;20047;-41
2021/11/16 03:45:37;;;;;;;897.38;840.13;;;;;;;18.97;54.29;101784.69;5053234;28;20104;-40
2021/11/16 03:48:04;;;;;;;930.95;865.70;;;;;;;18.58;55.96;101787.69;5054729;28;20025;-41
2021/11/16 03:50:30;;;;;;;1080.22;968.33;;;;;;;18.28;56.93;101784.69;5053390;28;20028;-41
2021/11/16 03:52:57;;;;;;;1176.55;910.28;;;;;;;18.16;57.54;101802.41;5052896;28;20025;-45
2021/11/16 03:55:26;;;;;;;953.35;885.28;;;;;;;17.99;58.02;101803.66;5055575;28;20158;-46
2021/11/16 03:57:57;;;;;;;911.65;846.85;;;;;;;17.77;58.58;101813.19;5054238;28;20021;-46
2021/11/16 04:00:28;;;;;;;1054.20;948.08;;;;;;;17.64;58.97;101807.06;5053900;28;20033;-46
2021/11/16 04:02:55;;;;;;;1036.70;943.58;;;;;;;17.55;58.96;101784.69;5052376;28;20025;-40
2021/11/16 04:05:22;;;;;;;958.78;892.78;;;;;;;16.33;58.70;101578.41;5044408;28;20362;-40
2021/11/16 04:07:49;;;;;;;901.90;842.50;;;;;;;17.89;58.13;101810.63;5052758;28;20028;-41
2021/11/16 04:10:15;;;;;;;904.03;845.60;;;;;;;18.00;57.27;101805.38;5054791;28;20362;-41
2021/11/16 04:12:43;;;;;;;900.40;842.50;;;;;;;18.16;56.98;101810.41;5055419;28;20017;-40
2021/11/16 04:15:10;;;;;;;893.95;836.88;;;;;;;18.21;56.80;101802.94;5046803;28;20123;-42
2021/11/16 04:17:39;;;;;;;887.75;830.85;;;;;;;18.29;56.78;101813.81;5055034;28;20029;-41
2021/11/16 04:20:30;;;;;;;914.60;856.60;;;;;;;18.36;56.41;101815.03;5054382;28;20099;-42
2021/11/16 04:22:56;;;;;;;893.28;836.17;;;;;;;18.40;55.93;101813.88;4986151;28;20041;-40
2021/11/16 04:25:23;;;;;;;896.08;838.58;;;;;;;18.40;56.07;101813.88;5013519;28;20033;-41
2021/11/16 04:27:49;;;;;;;924.47;864.40;;;;;;;18.41;56.02;101820.88;5013863;28;20456;-42
2021/11/16 04:30:17;;;;;;;894.95;837.67;;;;;;;18.33;55.75;101795.81;5014045;28;20120;-40
2021/11/16 04:32:43;;;;;;;894.58;837.22;;;;;;;18.32;55.40;101805.63;5014621;28;20026;-41
2021/11/16 04:35:10;;;;;;;890.63;833.97;;;;;;;18.46;55.40;101822.31;5014301;28;20045;-39
2021/11/16 04:37:39;;;;;;;893.38;836.90;;;;;;;18.35;55.50;101796.53;5012623;28;20096;-40
2021/11/16 04:40:10;;;;;;;890.53;834.17;;;;;;;18.48;55.31;101815.94;4993936;28;20116;-40
2021/11/16 04:42:37;;;;;;;892.58;835.17;;;;;;;18.51;55.54;101820.16;5008708;28;20179;-41
2021/11/16 04:45:08;;;;;;;916.92;857.75;;;;;;;18.62;55.47;101831.69;5009798;28;20127;-42
2021/11/16 04:47:47;;;;;;;911.90;852.83;;;;;;;18.60;55.39;101840.75;5012595;28;20053;-41
2021/11/16 04:50:31;;;;;;;908.45;849.60;;;;;;;18.60;55.53;101833.63;5015869;28;20041;-41
2021/11/16 05:03:24;;;;;;;886.15;829.83;;;;;;;18.48;55.17;101821.25;5054595;28;20501;-42
2021/11/16 05:05:51;;;;;;;879.38;823.30;;;;;;;18.62;55.32;101849.47;5058844;28;20051;-42
2021/11/16 05:08:17;;;;;;;893.40;836.22;;;;;;;18.55;55.70;101856.22;5054669;28;20036;-42
2021/11/16 05:10:43;;;;;;;900.90;843.08;;;;;;;18.58;55.73;101869.28;5052299;28;20443;-38
2021/11/16 05:13:09;;;;;;;918.53;859.03;;;;;;;18.65;55.65;101872.31;5055078;28;20041;-41
2021/11/16 05:15:37;;;;;;;912.97;852.95;;;;;;;18.67;55.62;101886.34;5053928;28;20459;-40
2021/11/16 05:18:04;;;;;;;889.03;831.50;;;;;;;18.67;55.50;101881.91;5053763;28;20025;-41
2021/11/16 05:20:30;;;;;;;913.83;855.38;;;;;;;18.67;55.63;101868.59;5050868;28;20025;-39
2021/11/16 05:22:56;;;;;;;899.33;841.35;;;;;;;18.66;55.76;101853.59;5046761;28;20437;-41
2021/11/16 05:25:23;;;;;;;889.63;832.13;;;;;;;18.66;55.65;101850.09;5053382;28;20025;-41
2021/11/16 05:27:49;;;;;;;922.85;863.25;;;;;;;18.56;55.87;101833.97;5051308;28;20025;-41
2021/11/16 05:30:15;;;;;;;908.05;848.33;;;;;;;18.57;55.53;101822.38;5058028;28;20382;-39
2021/11/16 05:32:42;;;;;;;891.03;833.13;;;;;;;18.68;55.83;101838.34;5052927;28;20024;-39
2021/11/16 05:35:09;;;;;;;906.58;848.13;;;;;;;18.61;56.24;101816.69;5063916;28;20335;-42
2021/11/16 05:37:35;;;;;;;920.20;859.75;;;;;;;18.67;56.24;101819.84;5037753;28;20075;-41
2021/11/16 05:40:02;;;;;;;1020.72;905.00;;;;;;;18.70;56.21;101815.13;5042038;28;20120;-42
2021/11/16 05:42:28;;;;;;;902.17;844.17;;;;;;;18.73;55.83;101811.41;5053019;28;20116;-41
2021/11/16 05:44:55;;;;;;;930.88;870.33;;;;;;;18.71;55.82;101811.50;5053022;28;20029;-41
2021/11/16 05:47:21;;;;;;;891.60;833.85;;;;;;;18.47;55.97;101779.66;5052926;28;20044;-41
2021/11/16 05:49:48;;;;;;;918.80;858.97;;;;;;;18.71;55.97;101827.47;5050581;28;20025;-41
2021/11/16 05:52:14;;;;;;;898.70;841.15;;;;;;;18.64;55.70;101814.78;5053309;28;20434;-42
2021/11/16 05:54:43;;;;;;;928.33;867.75;;;;;;;18.70;56.03;101832.91;5020147;28;20028;-42
2021/11/16 05:57:09;;;;;;;905.58;847.20;;;;;;;18.70;56.16;101838.25;5050743;28;20029;-40
2021/11/16 05:59:36;;;;;;;920.97;861.65;;;;;;;18.64;55.99;101825.41;5053440;28;20033;-42
2021/11/16 06:02:03;;;;;;;905.67;846.13;;;;;;;18.69;56.05;101834.75;5048149;28;20041;-42
2021/11/16 06:04:29;;;;;;;908.70;850.15;;;;;;;18.66;56.29;101834.97;5052756;28;20120;-40
2021/11/16 06:06:56;;;;;;;916.65;857.70;;;;;;;18.62;56.21;101813.06;5053292;28;20033;-41
2021/11/16 06:09:22;;;;;;;935.85;874.50;;;;;;;18.72;55.97;101818.50;5049352;28;20085;-41
2021/11/16 06:11:48;;;;;;;925.17;864.63;;;;;;;18.73;55.99;101814.91;5037309;28;20037;-41
2021/11/16 06:14:14;;;;;;;922.63;863.50;;;;;;;18.72;56.10;101796.38;5055170;28;20025;-41
2021/11/16 06:16:40;;;;;;;926.83;865.90;;;;;;;18.72;55.83;101804.38;5053757;28;20398;-41
2021/11/16 06:19:08;;;;;;;904.00;845.60;;;;;;;18.66;56.22;101791.56;5036596;28;20027;-41
2021/11/16 06:21:34;;;;;;;889.60;832.90;;;;;;;18.70;55.98;101820.44;5039802;28;20018;-40
2021/11/16 06:24:00;;;;;;;909.58;850.75;;;;;;;18.70;56.13;101823.09;5053503;28;20508;-42
2021/11/16 06:26:27;;;;;;;918.63;858.78;;;;;;;18.56;56.12;101794.91;5055738;28;20427;-41
2021/11/16 06:28:54;;;;;;;929.25;869.65;;;;;;;18.69;56.10;101800.16;5052009;28;20054;-41
2021/11/16 06:31:23;;;;;;;898.80;841.13;;;;;;;18.65;56.23;101777.38;5041566;28;20034;-41
2021/11/16 06:33:50;;;;;;;952.33;888.55;;;;;;;18.49;56.38;101740.47;5067714;28;20029;-41
2021/11/16 06:36:16;;;;;;;932.28;872.13;;;;;;;18.72;56.27;101770.63;5035691;28;20033;-42
2021/11/16 06:38:42;;;;;;;918.08;858.25;;;;;;;18.72;56.12;101770.63;5031981;28;20021;-41
2021/11/16 06:41:08;;;;;;;925.97;864.83;;;;;;;18.59;56.19;101765.41;5049660;28;20039;-41
2021/11/16 06:43:35;;;;;;;906.22;847.70;;;;;;;18.71;56.39;101781.41;5064901;28;20076;-40
2021/11/16 06:46:02;;;;;;;911.80;852.47;;;;;;;18.72;56.39;101788.41;5052662;28;20029;-42
2021/11/16 06:48:29;;;;;;;893.88;836.58;;;;;;;18.71;55.91;101789.38;5052454;28;20104;-42
2021/11/16 06:50:55;;;;;;;867.10;811.80;;;;;;;18.71;56.05;101797.38;5053520;28;20496;-40
2021/11/16 06:53:26;;;;;;;887.72;831.15;;;;;;;18.62;56.08;101798.94;5053064;28;20086;-40
2021/11/16 06:55:52;;;;;;;887.63;831.53;;;;;;;18.70;56.11;101800.97;5035927;28;20060;-42
2021/11/16 06:58:19;;;;;;;888.30;831.83;;;;;;;18.62;56.55;101786.47;5052990;28;20083;-42
2021/11/16 07:00:45;;;;;;;914.78;856.13;;;;;;;18.55;56.35;101782.59;5057569;28;20033;-40
2021/11/16 07:03:19;;;;;;;889.00;831.15;;;;;;;18.67;56.29;101809.19;5060121;28;20021;-42
2021/11/16 07:05:56;;;;;;;891.58;834.50;;;;;;;18.69;56.26;101817.91;5055170;28;20082;-41
2021/11/16 07:08:34;;;;;;;879.78;824.13;;;;;;;18.70;56.51;101816.94;5047431;28;20048;-39
2021/11/16 07:11:08;;;;;;;920.45;860.55;;;;;;;18.60;56.38;101799.03;5056296;28;20328;-40
2021/11/16 07:13:36;;;;;;;876.58;821.35;;;;;;;18.71;56.05;101816.84;5046401;28;20406;-40
2021/11/16 07:16:11;;;;;;;908.95;850.92;;;;;;;18.67;56.42;101804.75;5052110;28;20021;-41
2021/11/16 07:18:49;;;;;;;885.70;828.60;;;;;;;18.68;56.14;101808.25;5052434;28;20021;-41
2021/11/16 07:21:15;;;;;;;908.47;850.88;;;;;;;18.70;56.37;101819.63;5050413;28;20029;-40
2021/11/16 07:23:41;;;;;;;885.70;828.95;;;;;;;18.69;56.04;101823.22;5053286;28;20393;-42
2021/11/16 07:26:16;;;;;;;893.08;835.90;;;;;;;18.67;56.47;101831.34;5054792;28;20083;-40
2021/11/16 07:28:49;;;;;;;890.42;833.28;;;;;;;18.64;56.69;101836.91;5067864;28;20039;-40
2021/11/16 07:31:17;;;;;;;908.53;850.08;;;;;;;18.70;56.37;101838.25;5071020;28;20060;-41
2021/11/16 07:33:43;;;;;;;896.50;839.03;;;;;;;18.68;56.45;101846.34;5047583;28;20030;-33
2021/11/16 07:36:10;;;;;;;900.95;842.75;;;;;;;18.70;56.24;101851.53;5055076;28;20100;-42
2021/11/16 07:38:36;;;;;;;921.42;861.67;;;;;;;18.63;56.54;101843.16;5055234;28;20025;-40
2021/11/16 07:41:04;;;;;;;979.45;889.05;;;;;;;18.80;56.77;101853.38;5047967;28;20035;-41
2021/11/16 07:43:30;;;;;;;927.92;866.20;;;;;;;18.76;56.85;101819.13;5055070;28;20119;-38
2021/11/16 07:45:56;;;;;;;892.35;834.40;;;;;;;18.75;57.04;101828.09;5056597;28;20073;-39
2021/11/16 07:48:24;;;;;;;923.47;862.67;;;;;;;18.73;56.43;101835.34;5054975;28;20029;-41
2021/11/16 07:50:59;;;;;;;918.65;859.30;;;;;;;18.71;56.73;101853.25;5043903;28;20324;-41
2021/11/16 07:53:30;;;;;;;905.42;846.72;;;;;;;18.71;56.69;101856.75;5046269;28;20024;-40
2021/11/16 07:55:58;;;;;;;907.83;848.42;;;;;;;18.73;56.70;101861.97;5056338;28;20487;-42
2021/11/16 07:58:30;;;;;;;902.60;844.65;;;;;;;18.53;56.56;101819.09;5054516;28;20025;-41
2021/11/16 08:00:59;;;;;;;894.75;837.05;;;;;;;18.71;56.42;101837.28;5038002;28;20113;-40
2021/11/16 08:03:27;;;;;;;912.90;853.67;;;;;;;18.72;56.71;101820.34;5052091;28;20051;-40
2021/11/16 08:11:26;;;;;;;913.78;854.45;;;;;;;18.70;56.28;101808.97;5065187;28;20053;-39
2021/11/16 08:14:07;;;;;;;871.58;816.90;;;;;;;18.73;56.57;101835.34;5055735;28;20036;-41
2021/11/16 08:16:35;;;;;;;902.58;844.97;;;;;;;17.50;56.31;101664.66;5054501;28;20032;-42
2021/11/16 08:19:09;;;;;;;891.13;834.15;;;;;;;18.71;56.30;101869.22;5068471;28;20028;-41
2021/11/16 08:21:36;;;;;;;911.05;852.47;;;;;;;18.71;56.21;101861.22;5048933;28;20036;-42
2021/11/16 08:24:08;;;;;;;898.53;839.90;;;;;;;18.68;56.58;101850.81;5050396;28;20041;-41
2021/11/16 08:26:42;;;;;;;912.70;854.58;;;;;;;18.70;56.63;101835.56;5054588;28;20032;-42
2021/11/16 08:29:09;;;;;;;909.13;850.58;;;;;;;18.70;56.22;101840.91;5051015;28;20037;-41
2021/11/16 08:31:42;;;;;;;889.42;831.80;;;;;;;18.64;56.40;101830.75;5055743;28;20099;-41
2021/11/16 08:34:09;;;;;;;871.63;816.35;;;;;;;18.74;56.09;101842.34;5054509;28;20031;-40
2021/11/16 08:36:52;;;;;;;891.88;834.40;;;;;;;18.73;56.21;101835.34;5055876;28;20024;-41
2021/11/16 08:39:20;;;;;;;899.38;842.15;;;;;;;18.52;56.46;101790.78;5053587;28;20083;-41
2021/11/16 08:41:46;;;;;;;901.67;842.97;;;;;;;18.70;56.63;101828.44;5057835;28;20036;-38
2021/11/16 08:44:30;;;;;;;904.00;845.17;;;;;;;18.68;56.55;101819.72;5048793;28;20093;-41
2021/11/16 08:46:58;;;;;;;875.08;819.38;;;;;;;18.70;56.05;101824.94;5035580;28;20063;-41
2021/11/16 08:49:28;;;;;;;901.03;843.17;;;;;;;18.68;56.33;101819.72;5053496;28;20048;-41
2021/11/16 08:51:57;;;;;;;899.60;842.60;;;;;;;18.70;56.38;101824.94;5054100;28;20036;-40
2021/11/16 08:54:36;;;;;;;917.03;858.80;;;;;;;18.68;56.31;101832.19;5052942;28;20162;-41
2021/11/16 08:57:04;;;;;;;882.03;825.22;;;;;;;18.67;56.27;101826.03;5037932;28;20035;-41
2021/11/16 08:59:34;;;;;;;879.58;823.38;;;;;;;18.69;56.42;101817.91;5049120;28;20429;-41
2021/11/16 09:02:05;;;;;;;909.38;850.85;;;;;;;18.65;56.28;101816.44;5041910;28;20044;-40
2021/11/16 09:04:33;;;;;;;913.50;854.22;;;;;;;18.65;56.10;101800.50;5034149;28;20021;-40
2021/11/16 09:06:59;;;;;;;871.95;816.40;;;;;;;18.46;56.34;101759.34;5034996;28;20026;-38
2021/11/16 09:09:26;;;;;;;903.20;845.45;;;;;;;18.70;56.11;101815.13;5064017;28;20348;-40
2021/11/16 09:12:01;;;;;;;897.22;838.65;;;;;;;18.66;56.41;101808.34;5053669;28;20443;-41
2021/11/16 09:14:27;;;;;;;892.17;834.72;;;;;;;18.66;56.07;101810.19;5054902;28;20462;-42
2021/11/16 09:16:54;;;;;;;897.58;840.90;;;;;;;18.69;56.29;101797.50;5054831;28;20029;-40
2021/11/16 09:19:28;;;;;;;890.70;832.63;;;;;;;18.65;56.07;101801.31;5053938;28;20029;-42
2021/11/16 09:21:54;;;;;;;895.40;837.92;;;;;;;18.68;56.14;101795.78;5037009;28;20040;-41
2021/11/16 09:24:21;;;;;;;899.47;840.83;;;;;;;18.48;56.55;101802.63;5053738;28;20033;-42
2021/11/16 09:27:11;;;;;;;897.03;839.45;;;;;;;16.93;56.27;101554.72;5053934;28;20025;-41
2021/11/16 09:29:39;;;;;;;901.83;843.85;;;;;;;18.66;56.15;101834.97;5053884;28;20024;-41
2021/11/16 09:32:11;;;;;;;889.53;832.92;;;;;;;18.67;56.21;101846.44;5054729;28;20421;-38
2021/11/16 09:34:40;;;;;;;921.05;862.28;;;;;;;18.70;56.23;101859.53;5052273;28;20047;-41
2021/11/16 09:37:40;;;;;;;899.92;842.00;;;;;;;18.71;56.21;101862.06;5048339;28;20033;-40
2021/11/16 09:40:07;;;;;;;881.88;826.15;;;;;;;18.67;56.23;101842.00;5032909;28;20120;-41
2021/11/16 09:42:35;;;;;;;888.40;831.72;;;;;;;18.67;56.28;101842.00;5050224;28;20439;-41
2021/11/16 09:45:09;;;;;;;880.13;823.65;;;;;;;18.65;56.01;101843.91;5051179;28;20027;-41
2021/11/16 09:47:38;;;;;;;883.85;826.65;;;;;;;18.67;55.90;101860.63;5053900;28;20429;-41
2021/11/16 09:50:24;;;;;;;916.63;857.33;;;;;;;18.68;56.23;101842.84;5054011;28;20032;-40
2021/11/16 09:52:55;;;;;;;887.60;831.20;;;;;;;18.61;56.32;101839.78;5042207;28;20021;-40
2021/11/16 09:55:36;;;;;;;892.90;834.95;;;;;;;18.64;56.22;101842.22;5050287;28;20113;-41
2021/11/16 09:58:04;;;;;;;906.05;847.88;;;;;;;18.60;56.29;101846.94;5054128;28;20455;-41
2021/11/16 10:00:41;;;;;;;888.65;831.05;;;;;;;18.67;56.18;101859.75;5054435;28;20078;-41
2021/11/16 10:03:08;;;;;;;896.50;839.90;;;;;;;18.67;55.90;101871.25;5054237;28;20112;-38
2021/11/16 10:05:42;;;;;;;891.55;835.13;;;;;;;18.65;56.08;101897.09;5054177;28;20466;-41
2021/11/16 10:08:09;;;;;;;893.50;837.15;;;;;;;18.67;55.90;101886.34;5053539;28;20124;-41
2021/11/16 10:10:41;;;;;;;899.20;841.33;;;;;;;18.43;56.00;101836.72;5053138;28;20163;-41
2021/11/16 10:13:08;;;;;;;890.65;835.22;;;;;;;18.68;55.89;101841.00;5053072;28;20029;-42
2021/11/16 10:15:37;;;;;;;909.85;851.20;;;;;;;18.66;55.76;101826.16;5053545;28;20451;-40
2021/11/16 10:18:04;;;;;;;881.33;825.42;;;;;;;18.65;55.77;101833.25;5052510;28;20124;-40
2021/11/16 10:20:32;;;;;;;871.80;816.28;;;;;;;18.60;56.05;101825.66;5052836;28;20525;-41
2021/11/16 10:23:00;;;;;;;880.83;825.42;;;;;;;18.62;56.17;101822.88;5054046;28;20446;-39
2021/11/16 10:25:29;;;;;;;911.33;854.00;;;;;;;18.62;56.11;101833.50;5037266;28;20068;-42
2021/11/16 10:28:04;;;;;;;910.88;851.53;;;;;;;18.63;56.23;101835.19;5049573;28;20022;-39
2021/11/16 10:30:31;;;;;;;892.20;835.03;;;;;;;18.68;56.19;101837.50;5060837;28;20021;-38
2021/11/16 10:33:11;;;;;;;874.38;819.10;;;;;;;18.67;56.27;101825.16;5054158;28;20025;-39
2021/11/16 10:35:58;;;;;;;896.65;839.67;;;;;;;18.62;56.11;101807.75;5056602;28;20025;-40
2021/11/16 10:38:26;;;;;;;863.17;808.67;;;;;;;18.58;56.04;101806.31;5057718;28;20366;-41
2021/11/16 10:40:56;;;;;;;881.13;824.85;;;;;;;18.62;56.15;101815.72;5057833;28;20024;-40
2021/11/16 10:43:22;;;;;;;904.03;845.42;;;;;;;18.61;55.80;101818.50;5065221;28;20110;-40
2021/11/16 10:45:50;;;;;;;882.88;826.97;;;;;;;18.65;55.96;101830.59;5057566;28;20067;-40
2021/11/16 10:48:21;;;;;;;901.15;844.38;;;;;;;18.64;56.02;101834.25;5057257;28;20040;-42
2021/11/16 10:50:49;;;;;;;875.63;820.23;;;;;;;18.59;56.29;101825.75;5056937;28;20025;-41
2021/11/16 10:53:20;;;;;;;889.50;833.58;;;;;;;18.57;56.46;101825.03;5057177;28;20029;-40
2021/11/16 10:55:57;;;;;;;874.93;819.50;;;;;;;18.62;56.28;101821.06;5057519;28;20351;-40
2021/11/16 10:58:28;;;;;;;897.78;840.55;;;;;;;18.66;56.27;101831.47;5056626;28;20017;-41
2021/11/16 11:01:02;;;;;;;875.10;819.78;;;;;;;18.66;56.12;101828.81;5057244;28;20021;-40
2021/11/16 11:03:33;;;;;;;902.20;843.95;;;;;;;18.64;55.96;101826.25;5056491;28;20071;-41
2021/11/16 11:06:06;;;;;;;902.80;845.20;;;;;;;18.66;56.17;101813.69;5057294;28;20525;-41
2021/11/16 11:08:51;;;;;;;889.92;832.97;;;;;;;18.65;56.06;101811.97;5057042;28;20293;-42
2021/11/16 11:11:19;;;;;;;888.47;831.88;;;;;;;18.66;56.17;101813.69;5056602;28;20032;-42
2021/11/16 11:13:46;;;;;;;884.25;828.50;;;;;;;18.61;55.86;101802.53;5057255;28;20515;-41
2021/11/16 11:16:17;;;;;;;884.08;827.45;;;;;;;18.61;55.96;101808.69;5056075;28;20029;-40
2021/11/16 11:18:47;;;;;;;896.33;839.65;;;;;;;17.21;55.89;101571.25;5056134;28;20458;-42